AAL2135 KMIA-KIAH
Flight info
| Callsign | AAL2135 |
|---|---|
| Flight time | 2h 24m |
| Altitude | 34000 |
| Route | GLADZ4 BAGGS REMIS Y280 LEV LINKK1 |
| Aircraft | B738/M-SDE2E3FGHIRWXY/LB1 |
Departure
| Time | 2026-05-04 19:35 |
|---|---|
| Airport | Miami International Airport (KMIA) |
Arrival
| Time | 2026-05-04 21:59 |
|---|---|
| Airport | George Bush Intercontinental Airport (KIAH) |
| Time | Latitude | Longitude | Altitude | Speed | Heading |
|---|---|---|---|---|---|
| 2026-05-04 19:15 | 25.79831 | -80.28165 | 13 ft | 0 kts | 179° |
| 2026-05-04 19:22 | 25.79841 | -80.28165 | 14 ft | 3 kts | 181° |
| 2026-05-04 19:23 | 25.79861 | -80.28164 | 15 ft | 2 kts | 181° |
| 2026-05-04 19:23 | 25.79878 | -80.28163 | 13 ft | 3 kts | 200° |
| 2026-05-04 19:23 | 25.79892 | -80.28153 | 13 ft | 3 kts | 246° |
| 2026-05-04 19:23 | 25.79896 | -80.28133 | 13 ft | 2 kts | 267° |
| 2026-05-04 19:24 | 25.79896 | -80.28127 | 13 ft | 0 kts | 267° |
| 2026-05-04 19:28 | 25.79896 | -80.28128 | 13 ft | 1 kts | 267° |
| 2026-05-04 19:28 | 25.79900 | -80.28153 | 13 ft | 1 kts | 293° |
| 2026-05-04 19:28 | 25.79904 | -80.28158 | 13 ft | 4 kts | 314° |
| 2026-05-04 19:29 | 25.79955 | -80.28157 | 13 ft | 10 kts | 12° |
| 2026-05-04 19:29 | 25.80020 | -80.28163 | 13 ft | 9 kts | 328° |
| 2026-05-04 19:29 | 25.80039 | -80.28229 | 14 ft | 9 kts | 269° |
| 2026-05-04 19:29 | 25.80036 | -80.28305 | 14 ft | 12 kts | 267° |
| 2026-05-04 19:30 | 25.80032 | -80.28413 | 14 ft | 16 kts | 267° |
| 2026-05-04 19:30 | 25.80027 | -80.28538 | 16 ft | 16 kts | 267° |
| 2026-05-04 19:30 | 25.80023 | -80.28659 | 20 ft | 15 kts | 267° |
| 2026-05-04 19:30 | 25.80018 | -80.28775 | 21 ft | 15 kts | 267° |
| 2026-05-04 19:31 | 25.80013 | -80.28886 | 20 ft | 16 kts | 266° |
| 2026-05-04 19:31 | 25.80006 | -80.29013 | 19 ft | 16 kts | 266° |
| 2026-05-04 19:31 | 25.80002 | -80.29140 | 20 ft | 17 kts | 268° |
| 2026-05-04 19:31 | 25.79997 | -80.29273 | 19 ft | 17 kts | 267° |
| 2026-05-04 19:32 | 25.79990 | -80.29404 | 15 ft | 18 kts | 267° |
| 2026-05-04 19:32 | 25.79984 | -80.29541 | 13 ft | 17 kts | 268° |
| 2026-05-04 19:32 | 25.79980 | -80.29672 | 13 ft | 17 kts | 268° |
| 2026-05-04 19:32 | 25.79976 | -80.29799 | 12 ft | 16 kts | 268° |
| 2026-05-04 19:33 | 25.79972 | -80.29884 | 11 ft | 8 kts | 267° |
| 2026-05-04 19:33 | 25.79972 | -80.29943 | 11 ft | 8 kts | 277° |
| 2026-05-04 19:33 | 25.79992 | -80.30033 | 11 ft | 13 kts | 287° |
| 2026-05-04 19:33 | 25.80020 | -80.30108 | 14 ft | 10 kts | 306° |
| 2026-05-04 19:34 | 25.80053 | -80.30128 | 14 ft | 5 kts | 349° |
| 2026-05-04 19:34 | 25.80073 | -80.30105 | 14 ft | 4 kts | 85° |
| 2026-05-04 19:34 | 25.80073 | -80.30096 | 13 ft | 5 kts | 88° |
| 2026-05-04 19:34 | 25.80086 | -80.29794 | 13 ft | 76 kts | 87° |
| 2026-05-04 19:35 | 25.80120 | -80.28976 | 20 ft | 137 kts | 88° |
| 2026-05-04 19:35 | 25.80161 | -80.27735 | 158 ft | 178 kts | 86° |
| 2026-05-04 19:35 | 25.80203 | -80.26290 | 799 ft | 193 kts | 84° |
| 2026-05-04 19:35 | 25.80291 | -80.24832 | 1744 ft | 189 kts | 83° |
| 2026-05-04 19:36 | 25.80392 | -80.23292 | 2118 ft | 213 kts | 81° |
| 2026-05-04 19:36 | 25.80499 | -80.21534 | 2332 ft | 239 kts | 82° |
| 2026-05-04 19:36 | 25.80634 | -80.19633 | 2780 ft | 256 kts | 83° |
| 2026-05-04 19:36 | 25.81079 | -80.17743 | 3560 ft | 254 kts | 57° |
| 2026-05-04 19:37 | 25.82342 | -80.16386 | 4266 ft | 258 kts | 24° |
| 2026-05-04 19:37 | 25.84065 | -80.15862 | 4828 ft | 260 kts | 4° |
| 2026-05-04 19:37 | 25.85858 | -80.15784 | 4988 ft | 260 kts | 0° |
| 2026-05-04 19:37 | 25.87688 | -80.15743 | 5163 ft | 268 kts | 0° |
| 2026-05-04 19:38 | 25.89570 | -80.15779 | 5901 ft | 271 kts | 348° |
| 2026-05-04 19:38 | 25.91391 | -80.16351 | 6719 ft | 273 kts | 339° |
| 2026-05-04 19:38 | 25.93190 | -80.17012 | 7570 ft | 273 kts | 339° |
| 2026-05-04 19:38 | 25.95017 | -80.17669 | 8290 ft | 279 kts | 339° |
| 2026-05-04 19:39 | 25.96855 | -80.18389 | 9019 ft | 280 kts | 328° |
| 2026-05-04 19:39 | 25.98306 | -80.19753 | 9855 ft | 272 kts | 302° |
| 2026-05-04 19:39 | 25.99140 | -80.21627 | 10476 ft | 276 kts | 282° |
| 2026-05-04 19:39 | 25.99467 | -80.23809 | 10688 ft | 299 kts | 276° |
| 2026-05-04 19:40 | 25.99719 | -80.26199 | 10886 ft | 322 kts | 275° |
| 2026-05-04 19:40 | 25.99870 | -80.28767 | 11016 ft | 343 kts | 270° |
| 2026-05-04 19:40 | 25.99843 | -80.31492 | 11195 ft | 361 kts | 268° |
| 2026-05-04 19:40 | 25.99793 | -80.34315 | 11634 ft | 368 kts | 269° |
| 2026-05-04 19:41 | 25.99767 | -80.37172 | 12260 ft | 370 kts | 269° |
| 2026-05-04 19:41 | 25.99747 | -80.40037 | 12898 ft | 371 kts | 266° |
| 2026-05-04 19:41 | 25.99248 | -80.42841 | 13497 ft | 373 kts | 251° |
| 2026-05-04 19:41 | 25.98047 | -80.45402 | 14048 ft | 377 kts | 237° |
| 2026-05-04 19:42 | 25.96448 | -80.47730 | 14522 ft | 380 kts | 234° |
| 2026-05-04 19:42 | 25.94787 | -80.50031 | 14988 ft | 383 kts | 233° |
| 2026-05-04 19:42 | 25.93109 | -80.52340 | 15439 ft | 386 kts | 233° |
| 2026-05-04 19:42 | 25.91423 | -80.54675 | 15880 ft | 388 kts | 234° |
| 2026-05-04 19:43 | 25.89739 | -80.57029 | 16318 ft | 390 kts | 234° |
| 2026-05-04 19:43 | 25.88053 | -80.59400 | 16753 ft | 392 kts | 234° |
| 2026-05-04 19:43 | 25.86360 | -80.61790 | 17174 ft | 395 kts | 234° |
| 2026-05-04 19:43 | 25.84980 | -80.63741 | 17545 ft | 396 kts | 234° |
| 2026-05-04 19:44 | 25.83271 | -80.66156 | 17958 ft | 399 kts | 234° |
| 2026-05-04 19:44 | 25.81552 | -80.68583 | 18338 ft | 401 kts | 234° |
| 2026-05-04 19:44 | 25.79821 | -80.71025 | 18660 ft | 403 kts | 234° |
| 2026-05-04 19:44 | 25.78301 | -80.73634 | 18961 ft | 403 kts | 247° |
| 2026-05-04 19:45 | 25.77409 | -80.76564 | 19337 ft | 403 kts | 255° |
| 2026-05-04 19:45 | 25.76642 | -80.79562 | 19670 ft | 404 kts | 255° |
| 2026-05-04 19:45 | 25.75859 | -80.82571 | 19981 ft | 406 kts | 254° |
| 2026-05-04 19:45 | 25.75050 | -80.85585 | 20270 ft | 409 kts | 254° |
| 2026-05-04 19:46 | 25.74226 | -80.88608 | 20572 ft | 411 kts | 254° |
| 2026-05-04 19:46 | 25.73405 | -80.91607 | 20866 ft | 412 kts | 254° |
| 2026-05-04 19:46 | 25.72559 | -80.94696 | 21164 ft | 414 kts | 254° |
| 2026-05-04 19:46 | 25.71733 | -80.97712 | 21452 ft | 415 kts | 254° |
| 2026-05-04 19:47 | 25.70889 | -81.00792 | 21724 ft | 417 kts | 254° |
| 2026-05-04 19:47 | 25.70044 | -81.03877 | 21999 ft | 419 kts | 254° |
| 2026-05-04 19:47 | 25.69195 | -81.06976 | 22263 ft | 421 kts | 254° |
| 2026-05-04 19:47 | 25.68342 | -81.10087 | 22522 ft | 422 kts | 254° |
| 2026-05-04 19:48 | 25.67486 | -81.13204 | 22784 ft | 423 kts | 254° |
| 2026-05-04 19:48 | 25.66626 | -81.16333 | 23042 ft | 425 kts | 254° |
| 2026-05-04 19:48 | 25.65766 | -81.19474 | 23274 ft | 426 kts | 256° |
| 2026-05-04 19:48 | 25.65350 | -81.22713 | 23466 ft | 427 kts | 270° |
| 2026-05-04 19:49 | 25.65649 | -81.25989 | 23706 ft | 429 kts | 281° |
| 2026-05-04 19:49 | 25.66612 | -81.29120 | 23904 ft | 432 kts | 292° |
| 2026-05-04 19:49 | 25.67951 | -81.32111 | 24130 ft | 434 kts | 294° |
| 2026-05-04 19:49 | 25.69348 | -81.35088 | 24318 ft | 435 kts | 295° |
| 2026-05-04 19:50 | 25.70756 | -81.38065 | 24510 ft | 436 kts | 295° |
| 2026-05-04 19:50 | 25.72155 | -81.41050 | 24708 ft | 437 kts | 294° |
| 2026-05-04 19:50 | 25.73543 | -81.44051 | 24900 ft | 438 kts | 294° |
| 2026-05-04 19:50 | 25.74923 | -81.47063 | 25090 ft | 438 kts | 294° |
| 2026-05-04 19:51 | 25.76298 | -81.50084 | 25279 ft | 439 kts | 294° |
| 2026-05-04 19:51 | 25.77673 | -81.53115 | 25461 ft | 440 kts | 294° |
| 2026-05-04 19:51 | 25.79048 | -81.56150 | 25642 ft | 441 kts | 294° |
| 2026-05-04 19:51 | 25.80347 | -81.59019 | 25813 ft | 442 kts | 294° |
| 2026-05-04 19:52 | 25.81730 | -81.62073 | 25995 ft | 442 kts | 294° |
| 2026-05-04 19:52 | 25.83112 | -81.65127 | 26166 ft | 443 kts | 294° |
| 2026-05-04 19:52 | 25.84499 | -81.68194 | 26337 ft | 444 kts | 294° |
| 2026-05-04 19:52 | 25.85883 | -81.71254 | 26550 ft | 443 kts | 294° |
| 2026-05-04 19:53 | 25.87262 | -81.74307 | 26803 ft | 441 kts | 294° |
| 2026-05-04 19:53 | 25.88735 | -81.77298 | 27064 ft | 443 kts | 301° |
| 2026-05-04 19:53 | 25.90765 | -81.79902 | 27306 ft | 450 kts | 313° |
| 2026-05-04 19:53 | 25.93194 | -81.82044 | 27600 ft | 452 kts | 317° |
| 2026-05-04 19:54 | 25.95718 | -81.84128 | 27875 ft | 451 kts | 318° |
| 2026-05-04 19:54 | 25.98252 | -81.86196 | 28127 ft | 451 kts | 318° |
| 2026-05-04 19:54 | 26.00742 | -81.88235 | 28391 ft | 450 kts | 318° |
| 2026-05-04 19:54 | 26.03253 | -81.90308 | 28695 ft | 448 kts | 317° |
| 2026-05-04 19:55 | 26.05739 | -81.92376 | 29015 ft | 446 kts | 317° |
| 2026-05-04 19:55 | 26.08217 | -81.94451 | 29335 ft | 445 kts | 317° |
| 2026-05-04 19:55 | 26.10679 | -81.96522 | 29659 ft | 443 kts | 317° |
| 2026-05-04 19:55 | 26.13134 | -81.98590 | 29987 ft | 442 kts | 317° |
| 2026-05-04 19:56 | 26.15576 | -82.00651 | 30290 ft | 440 kts | 317° |
| 2026-05-04 19:56 | 26.18013 | -82.02709 | 30549 ft | 439 kts | 317° |
| 2026-05-04 19:56 | 26.20448 | -82.04767 | 30807 ft | 439 kts | 317° |
| 2026-05-04 19:56 | 26.22873 | -82.06817 | 31064 ft | 438 kts | 317° |
| 2026-05-04 19:57 | 26.25299 | -82.08868 | 31321 ft | 437 kts | 317° |
| 2026-05-04 19:57 | 26.27720 | -82.10916 | 31586 ft | 437 kts | 317° |
| 2026-05-04 19:57 | 26.30139 | -82.12963 | 31849 ft | 436 kts | 317° |
| 2026-05-04 19:57 | 26.32543 | -82.14997 | 32122 ft | 435 kts | 316° |
| 2026-05-04 19:58 | 26.34952 | -82.17037 | 32389 ft | 434 kts | 316° |
| 2026-05-04 19:58 | 26.37360 | -82.19078 | 32655 ft | 434 kts | 316° |
| 2026-05-04 19:58 | 26.39759 | -82.21112 | 32904 ft | 433 kts | 316° |
| 2026-05-04 19:58 | 26.42161 | -82.23150 | 33180 ft | 432 kts | 316° |
| 2026-05-04 19:59 | 26.44547 | -82.25175 | 33504 ft | 430 kts | 316° |
| 2026-05-04 19:59 | 26.46922 | -82.27191 | 33850 ft | 428 kts | 316° |
| 2026-05-04 19:59 | 26.49291 | -82.29204 | 34007 ft | 429 kts | 316° |
| 2026-05-04 20:00 | 26.54057 | -82.33260 | 34007 ft | 429 kts | 316° |
| 2026-05-04 20:00 | 26.58759 | -82.37262 | 34014 ft | 426 kts | 316° |
| 2026-05-04 20:01 | 26.63462 | -82.41268 | 34013 ft | 424 kts | 316° |
| 2026-05-04 20:01 | 26.68142 | -82.45262 | 34015 ft | 423 kts | 316° |
| 2026-05-04 20:02 | 26.72820 | -82.49259 | 34015 ft | 423 kts | 316° |
| 2026-05-04 20:02 | 26.77511 | -82.53271 | 34020 ft | 425 kts | 316° |
| 2026-05-04 20:03 | 26.82229 | -82.57310 | 34020 ft | 428 kts | 316° |
| 2026-05-04 20:03 | 26.86975 | -82.61377 | 34026 ft | 430 kts | 316° |
| 2026-05-04 20:04 | 26.91744 | -82.65467 | 34016 ft | 432 kts | 316° |
| 2026-05-04 20:04 | 26.96524 | -82.69570 | 34010 ft | 433 kts | 316° |
| 2026-05-04 20:05 | 27.00502 | -82.72989 | 34013 ft | 433 kts | 316° |
| 2026-05-04 20:05 | 27.06046 | -82.77760 | 34023 ft | 432 kts | 316° |
| 2026-05-04 20:06 | 27.10804 | -82.81860 | 34017 ft | 430 kts | 315° |
| 2026-05-04 20:06 | 27.13966 | -82.86000 | 34019 ft | 411 kts | 293° |
| 2026-05-04 20:07 | 27.16037 | -82.91908 | 34020 ft | 405 kts | 286° |
| 2026-05-04 20:07 | 27.17868 | -82.97837 | 34020 ft | 405 kts | 286° |
| 2026-05-04 20:08 | 27.19741 | -83.03844 | 34020 ft | 405 kts | 286° |
| 2026-05-04 20:08 | 27.21629 | -83.09813 | 34021 ft | 406 kts | 287° |
| 2026-05-04 20:09 | 27.23533 | -83.15800 | 34023 ft | 407 kts | 287° |
| 2026-05-04 20:09 | 27.25440 | -83.21798 | 34021 ft | 408 kts | 287° |
| 2026-05-04 20:10 | 27.27339 | -83.27779 | 34022 ft | 409 kts | 287° |
| 2026-05-04 20:10 | 27.29251 | -83.33811 | 34030 ft | 410 kts | 287° |
| 2026-05-04 20:11 | 27.31166 | -83.39864 | 34030 ft | 411 kts | 287° |
| 2026-05-04 20:11 | 27.33084 | -83.45936 | 34034 ft | 411 kts | 287° |
| 2026-05-04 20:12 | 27.35001 | -83.52016 | 34034 ft | 412 kts | 287° |
| 2026-05-04 20:12 | 27.36914 | -83.58092 | 34032 ft | 412 kts | 287° |
| 2026-05-04 20:13 | 27.38812 | -83.64134 | 34034 ft | 412 kts | 287° |
| 2026-05-04 20:13 | 27.40722 | -83.70223 | 34035 ft | 412 kts | 287° |
| 2026-05-04 20:14 | 27.42627 | -83.76305 | 34034 ft | 412 kts | 287° |
| 2026-05-04 20:14 | 27.44530 | -83.82394 | 34035 ft | 412 kts | 287° |
| 2026-05-04 20:15 | 27.46430 | -83.88482 | 34035 ft | 412 kts | 287° |
| 2026-05-04 20:15 | 27.48328 | -83.94577 | 34036 ft | 412 kts | 287° |
| 2026-05-04 20:16 | 27.50208 | -84.00623 | 34035 ft | 412 kts | 288° |
| 2026-05-04 20:16 | 27.52100 | -84.06717 | 34038 ft | 412 kts | 288° |
| 2026-05-04 20:17 | 27.53986 | -84.12805 | 34037 ft | 411 kts | 288° |
| 2026-05-04 20:17 | 27.55871 | -84.18897 | 34041 ft | 411 kts | 288° |
| 2026-05-04 20:18 | 27.57752 | -84.24989 | 34045 ft | 411 kts | 288° |
| 2026-05-04 20:18 | 27.59630 | -84.31083 | 34040 ft | 411 kts | 288° |
| 2026-05-04 20:19 | 27.61505 | -84.37176 | 34044 ft | 411 kts | 288° |
| 2026-05-04 20:19 | 27.63322 | -84.43092 | 34044 ft | 411 kts | 288° |
| 2026-05-04 20:20 | 27.65177 | -84.49142 | 34045 ft | 411 kts | 288° |
| 2026-05-04 20:20 | 27.67052 | -84.55265 | 34043 ft | 410 kts | 288° |
| 2026-05-04 20:21 | 27.68900 | -84.61313 | 34042 ft | 410 kts | 289° |
| 2026-05-04 20:21 | 27.71680 | -84.70433 | 34042 ft | 409 kts | 289° |
| 2026-05-04 20:22 | 27.73528 | -84.76507 | 34047 ft | 409 kts | 289° |
| 2026-05-04 20:22 | 27.75372 | -84.82580 | 34044 ft | 408 kts | 289° |
| 2026-05-04 20:23 | 27.77210 | -84.88645 | 34048 ft | 408 kts | 289° |
| 2026-05-04 20:23 | 27.79002 | -84.94566 | 34046 ft | 407 kts | 289° |
| 2026-05-04 20:24 | 27.80841 | -85.00656 | 34046 ft | 407 kts | 289° |
| 2026-05-04 20:24 | 27.82652 | -85.06662 | 34047 ft | 406 kts | 290° |
| 2026-05-04 20:25 | 27.84466 | -85.12691 | 34045 ft | 405 kts | 290° |
| 2026-05-04 20:25 | 27.86276 | -85.18715 | 34047 ft | 404 kts | 290° |
| 2026-05-04 20:26 | 27.88080 | -85.24726 | 34046 ft | 403 kts | 290° |
| 2026-05-04 20:26 | 27.89891 | -85.30724 | 34040 ft | 402 kts | 290° |
| 2026-05-04 20:27 | 27.91711 | -85.36709 | 34043 ft | 402 kts | 291° |
| 2026-05-04 20:27 | 27.93523 | -85.42676 | 34046 ft | 401 kts | 291° |
| 2026-05-04 20:28 | 27.95329 | -85.48642 | 34045 ft | 400 kts | 291° |
| 2026-05-04 20:28 | 27.97129 | -85.54600 | 34047 ft | 400 kts | 291° |
| 2026-05-04 20:29 | 27.98912 | -85.60514 | 34048 ft | 399 kts | 291° |
| 2026-05-04 20:29 | 28.00698 | -85.66450 | 34049 ft | 398 kts | 291° |
| 2026-05-04 20:30 | 28.02482 | -85.72390 | 34045 ft | 398 kts | 291° |
| 2026-05-04 20:30 | 28.04259 | -85.78315 | 34047 ft | 397 kts | 291° |
| 2026-05-04 20:31 | 28.06032 | -85.84239 | 34047 ft | 397 kts | 291° |
| 2026-05-04 20:31 | 28.07802 | -85.90162 | 34047 ft | 396 kts | 292° |
| 2026-05-04 20:32 | 28.09564 | -85.96068 | 34046 ft | 395 kts | 292° |
| 2026-05-04 20:32 | 28.11320 | -86.01964 | 34042 ft | 395 kts | 292° |
| 2026-05-04 20:33 | 28.13072 | -86.07858 | 34042 ft | 394 kts | 292° |
| 2026-05-04 20:33 | 28.14817 | -86.13741 | 34044 ft | 394 kts | 292° |
| 2026-05-04 20:34 | 28.16550 | -86.19592 | 34042 ft | 393 kts | 292° |
| 2026-05-04 20:34 | 28.18288 | -86.25468 | 34044 ft | 393 kts | 292° |
| 2026-05-04 20:35 | 28.20020 | -86.31338 | 34047 ft | 392 kts | 292° |
| 2026-05-04 20:35 | 28.21746 | -86.37193 | 34051 ft | 392 kts | 292° |
| 2026-05-04 20:36 | 28.23470 | -86.43055 | 34046 ft | 391 kts | 292° |
| 2026-05-04 20:36 | 28.25176 | -86.48866 | 34052 ft | 390 kts | 292° |
| 2026-05-04 20:37 | 28.26886 | -86.54703 | 34053 ft | 390 kts | 292° |
| 2026-05-04 20:37 | 28.28594 | -86.60542 | 34054 ft | 389 kts | 292° |
| 2026-05-04 20:38 | 28.30297 | -86.66369 | 34053 ft | 389 kts | 292° |
| 2026-05-04 20:38 | 28.31995 | -86.72191 | 34054 ft | 388 kts | 292° |
| 2026-05-04 20:39 | 28.33700 | -86.78009 | 34056 ft | 388 kts | 292° |
| 2026-05-04 20:39 | 28.35404 | -86.83826 | 34053 ft | 388 kts | 292° |
| 2026-05-04 20:40 | 28.37103 | -86.89641 | 34053 ft | 388 kts | 292° |
| 2026-05-04 20:40 | 28.38797 | -86.95451 | 34054 ft | 388 kts | 292° |
| 2026-05-04 20:41 | 28.40488 | -87.01261 | 34054 ft | 387 kts | 292° |
| 2026-05-04 20:41 | 28.42177 | -87.07074 | 34055 ft | 387 kts | 292° |
| 2026-05-04 20:42 | 28.43862 | -87.12887 | 34059 ft | 387 kts | 292° |
| 2026-05-04 20:42 | 28.45545 | -87.18700 | 34056 ft | 387 kts | 292° |
| 2026-05-04 20:43 | 28.47169 | -87.24321 | 34060 ft | 387 kts | 292° |
| 2026-05-04 20:43 | 28.48847 | -87.30137 | 34055 ft | 387 kts | 292° |
| 2026-05-04 20:44 | 28.50520 | -87.35949 | 34057 ft | 387 kts | 292° |
| 2026-05-04 20:44 | 28.52182 | -87.41731 | 34058 ft | 387 kts | 291° |
| 2026-05-04 20:45 | 28.53850 | -87.47543 | 34056 ft | 387 kts | 291° |
| 2026-05-04 20:45 | 28.55515 | -87.53359 | 34054 ft | 386 kts | 291° |
| 2026-05-04 20:46 | 28.57177 | -87.59172 | 34061 ft | 386 kts | 291° |
| 2026-05-04 20:46 | 28.58838 | -87.64993 | 34058 ft | 386 kts | 291° |
| 2026-05-04 20:47 | 28.60496 | -87.70815 | 34059 ft | 386 kts | 291° |
| 2026-05-04 20:47 | 28.61872 | -87.75654 | 34063 ft | 386 kts | 291° |
| 2026-05-04 20:48 | 28.63527 | -87.81484 | 34064 ft | 386 kts | 291° |
| 2026-05-04 20:48 | 28.65444 | -87.88249 | 34064 ft | 386 kts | 291° |
| 2026-05-04 20:49 | 28.66827 | -87.93139 | 34062 ft | 387 kts | 291° |
| 2026-05-04 20:49 | 28.68462 | -87.98931 | 34056 ft | 387 kts | 291° |
| 2026-05-04 20:50 | 28.70105 | -88.04759 | 34060 ft | 387 kts | 291° |
| 2026-05-04 20:50 | 28.71745 | -88.10592 | 34061 ft | 387 kts | 291° |
| 2026-05-04 20:51 | 28.73380 | -88.16427 | 34059 ft | 387 kts | 291° |
| 2026-05-04 20:51 | 28.75015 | -88.22275 | 34059 ft | 387 kts | 291° |
| 2026-05-04 20:52 | 28.76644 | -88.28113 | 34059 ft | 387 kts | 291° |
| 2026-05-04 20:52 | 28.78271 | -88.33955 | 34057 ft | 387 kts | 291° |
| 2026-05-04 20:53 | 28.79897 | -88.39800 | 34058 ft | 387 kts | 291° |
| 2026-05-04 20:53 | 28.81521 | -88.45652 | 34060 ft | 387 kts | 291° |
| 2026-05-04 20:54 | 28.83131 | -88.51464 | 34058 ft | 387 kts | 291° |
| 2026-05-04 20:54 | 28.84749 | -88.57315 | 34059 ft | 387 kts | 291° |
| 2026-05-04 20:55 | 28.86373 | -88.63201 | 34057 ft | 387 kts | 290° |
| 2026-05-04 20:55 | 28.87975 | -88.69014 | 34058 ft | 387 kts | 290° |
| 2026-05-04 20:56 | 28.89373 | -88.74959 | 34059 ft | 388 kts | 288° |
| 2026-05-04 20:56 | 28.90630 | -88.80952 | 34058 ft | 388 kts | 287° |
| 2026-05-04 20:57 | 28.91885 | -88.86945 | 34059 ft | 388 kts | 287° |
| 2026-05-04 20:57 | 28.93148 | -88.92933 | 34059 ft | 388 kts | 287° |
| 2026-05-04 20:58 | 28.94413 | -88.98914 | 34061 ft | 387 kts | 287° |
| 2026-05-04 20:58 | 28.95677 | -89.04890 | 34059 ft | 387 kts | 287° |
| 2026-05-04 20:59 | 28.96938 | -89.10869 | 34061 ft | 387 kts | 287° |
| 2026-05-04 20:59 | 28.98195 | -89.16842 | 34059 ft | 386 kts | 287° |
| 2026-05-04 21:00 | 28.99449 | -89.22811 | 34058 ft | 386 kts | 287° |
| 2026-05-04 21:00 | 29.00698 | -89.28775 | 34059 ft | 386 kts | 287° |
| 2026-05-04 21:01 | 29.01944 | -89.34741 | 34062 ft | 386 kts | 287° |
| 2026-05-04 21:01 | 29.03188 | -89.40706 | 34059 ft | 386 kts | 287° |
| 2026-05-04 21:02 | 29.04421 | -89.46635 | 34064 ft | 385 kts | 287° |
| 2026-05-04 21:02 | 29.05658 | -89.52597 | 34063 ft | 385 kts | 287° |
| 2026-05-04 21:03 | 29.06890 | -89.58548 | 34060 ft | 385 kts | 287° |
| 2026-05-04 21:03 | 29.08121 | -89.64507 | 34059 ft | 385 kts | 287° |
| 2026-05-04 21:04 | 29.09346 | -89.70455 | 34064 ft | 384 kts | 287° |
| 2026-05-04 21:04 | 29.10571 | -89.76415 | 34062 ft | 384 kts | 287° |
| 2026-05-04 21:05 | 29.11790 | -89.82358 | 34065 ft | 384 kts | 287° |
| 2026-05-04 21:05 | 29.13006 | -89.88305 | 34060 ft | 384 kts | 287° |
| 2026-05-04 21:06 | 29.14219 | -89.94249 | 34063 ft | 384 kts | 287° |
| 2026-05-04 21:06 | 29.15431 | -90.00200 | 34063 ft | 384 kts | 287° |
| 2026-05-04 21:07 | 29.16639 | -90.06148 | 34066 ft | 384 kts | 287° |
| 2026-05-04 21:07 | 29.17790 | -90.12117 | 34068 ft | 385 kts | 284° |
| 2026-05-04 21:08 | 29.18591 | -90.18189 | 34073 ft | 386 kts | 283° |
| 2026-05-04 21:08 | 29.19319 | -90.24278 | 34068 ft | 386 kts | 283° |
| 2026-05-04 21:09 | 29.20067 | -90.30361 | 34071 ft | 386 kts | 283° |
| 2026-05-04 21:09 | 29.20831 | -90.36440 | 34069 ft | 386 kts | 283° |
| 2026-05-04 21:10 | 29.21594 | -90.42476 | 34069 ft | 385 kts | 283° |
| 2026-05-04 21:10 | 29.22360 | -90.48549 | 34069 ft | 385 kts | 283° |
| 2026-05-04 21:11 | 29.23123 | -90.54619 | 34063 ft | 385 kts | 283° |
| 2026-05-04 21:11 | 29.23884 | -90.60695 | 34068 ft | 385 kts | 283° |
| 2026-05-04 21:12 | 29.24642 | -90.66767 | 34059 ft | 385 kts | 283° |
| 2026-05-04 21:12 | 29.25397 | -90.72844 | 34065 ft | 385 kts | 283° |
| 2026-05-04 21:13 | 29.26148 | -90.78914 | 34065 ft | 385 kts | 283° |
| 2026-05-04 21:13 | 29.26897 | -90.84981 | 34059 ft | 385 kts | 283° |
| 2026-05-04 21:14 | 29.27642 | -90.91044 | 34066 ft | 384 kts | 283° |
| 2026-05-04 21:14 | 29.28280 | -90.96261 | 34065 ft | 384 kts | 283° |
| 2026-05-04 21:15 | 29.29015 | -91.02286 | 34063 ft | 384 kts | 283° |
| 2026-05-04 21:15 | 29.29753 | -91.08352 | 34065 ft | 384 kts | 283° |
| 2026-05-04 21:16 | 29.30487 | -91.14418 | 34066 ft | 384 kts | 283° |
| 2026-05-04 21:16 | 29.31220 | -91.20491 | 34066 ft | 384 kts | 283° |
| 2026-05-04 21:17 | 29.31948 | -91.26559 | 34065 ft | 384 kts | 283° |
| 2026-05-04 21:17 | 29.32673 | -91.32626 | 34066 ft | 384 kts | 283° |
| 2026-05-04 21:18 | 29.33394 | -91.38697 | 34069 ft | 384 kts | 283° |
| 2026-05-04 21:18 | 29.34113 | -91.44762 | 34067 ft | 384 kts | 283° |
| 2026-05-04 21:19 | 29.34830 | -91.50840 | 34066 ft | 384 kts | 283° |
| 2026-05-04 21:19 | 29.35543 | -91.56909 | 34066 ft | 384 kts | 282° |
| 2026-05-04 21:20 | 29.36253 | -91.62972 | 34066 ft | 384 kts | 283° |
| 2026-05-04 21:20 | 29.36956 | -91.68996 | 34062 ft | 383 kts | 282° |
| 2026-05-04 21:21 | 29.37665 | -91.75101 | 34061 ft | 383 kts | 282° |
| 2026-05-04 21:21 | 29.38361 | -91.81123 | 34057 ft | 383 kts | 282° |
| 2026-05-04 21:22 | 29.39060 | -91.87188 | 34058 ft | 384 kts | 282° |
| 2026-05-04 21:22 | 29.39756 | -91.93254 | 34056 ft | 384 kts | 282° |
| 2026-05-04 21:23 | 29.40449 | -91.99319 | 34050 ft | 384 kts | 282° |
| 2026-05-04 21:23 | 29.41140 | -92.05388 | 34049 ft | 384 kts | 282° |
| 2026-05-04 21:24 | 29.41828 | -92.11461 | 34051 ft | 384 kts | 282° |
| 2026-05-04 21:24 | 29.42514 | -92.17535 | 34051 ft | 384 kts | 282° |
| 2026-05-04 21:25 | 29.43197 | -92.23615 | 34048 ft | 384 kts | 282° |
| 2026-05-04 21:25 | 29.43877 | -92.29691 | 34050 ft | 384 kts | 282° |
| 2026-05-04 21:26 | 29.44555 | -92.35771 | 34046 ft | 384 kts | 282° |
| 2026-05-04 21:26 | 29.45231 | -92.41858 | 34046 ft | 384 kts | 282° |
| 2026-05-04 21:27 | 29.45836 | -92.47924 | 34046 ft | 386 kts | 279° |
| 2026-05-04 21:27 | 29.46129 | -92.54094 | 34042 ft | 387 kts | 278° |
| 2026-05-04 21:28 | 29.46372 | -92.60269 | 34046 ft | 387 kts | 278° |
| 2026-05-04 21:28 | 29.46639 | -92.66443 | 34038 ft | 387 kts | 278° |
| 2026-05-04 21:29 | 29.46919 | -92.72616 | 34041 ft | 387 kts | 278° |
| 2026-05-04 21:29 | 29.47200 | -92.78787 | 34039 ft | 387 kts | 278° |
| 2026-05-04 21:30 | 29.47426 | -92.83787 | 34041 ft | 387 kts | 278° |
| 2026-05-04 21:30 | 29.47747 | -92.90964 | 34038 ft | 388 kts | 278° |
| 2026-05-04 21:31 | 29.48111 | -92.99198 | 34038 ft | 388 kts | 278° |
| 2026-05-04 21:32 | 29.48381 | -93.05385 | 34037 ft | 388 kts | 278° |
| 2026-05-04 21:32 | 29.48642 | -93.11581 | 34034 ft | 388 kts | 278° |
| 2026-05-04 21:33 | 29.48889 | -93.17776 | 34019 ft | 389 kts | 278° |
| 2026-05-04 21:33 | 29.49015 | -93.20915 | 33343 ft | 395 kts | 278° |
| 2026-05-04 21:33 | 29.49137 | -93.24041 | 32694 ft | 391 kts | 278° |
| 2026-05-04 21:33 | 29.49258 | -93.27154 | 31963 ft | 390 kts | 278° |
| 2026-05-04 21:34 | 29.49380 | -93.30276 | 31203 ft | 391 kts | 278° |
| 2026-05-04 21:34 | 29.49501 | -93.33397 | 30412 ft | 393 kts | 277° |
| 2026-05-04 21:34 | 29.49624 | -93.36538 | 29497 ft | 395 kts | 277° |
| 2026-05-04 21:34 | 29.49742 | -93.39664 | 28875 ft | 389 kts | 277° |
| 2026-05-04 21:35 | 29.49861 | -93.42779 | 28254 ft | 393 kts | 277° |
| 2026-05-04 21:35 | 29.49983 | -93.45932 | 27624 ft | 396 kts | 277° |
| 2026-05-04 21:35 | 29.50100 | -93.49071 | 27017 ft | 391 kts | 277° |
| 2026-05-04 21:35 | 29.50214 | -93.52167 | 26424 ft | 386 kts | 277° |
| 2026-05-04 21:36 | 29.50327 | -93.55232 | 25838 ft | 382 kts | 276° |
| 2026-05-04 21:36 | 29.50439 | -93.58271 | 25253 ft | 379 kts | 276° |
| 2026-05-04 21:36 | 29.50550 | -93.61286 | 24656 ft | 376 kts | 276° |
| 2026-05-04 21:36 | 29.50661 | -93.64283 | 24069 ft | 377 kts | 276° |
| 2026-05-04 21:37 | 29.50772 | -93.67303 | 23455 ft | 379 kts | 276° |
| 2026-05-04 21:37 | 29.50882 | -93.70319 | 22788 ft | 377 kts | 276° |
| 2026-05-04 21:37 | 29.50988 | -93.73307 | 22178 ft | 373 kts | 276° |
| 2026-05-04 21:37 | 29.51093 | -93.76259 | 21591 ft | 369 kts | 275° |
| 2026-05-04 21:38 | 29.51196 | -93.79163 | 21023 ft | 367 kts | 275° |
| 2026-05-04 21:38 | 29.51299 | -93.82080 | 20460 ft | 365 kts | 275° |
| 2026-05-04 21:38 | 29.51401 | -93.84989 | 19893 ft | 367 kts | 275° |
| 2026-05-04 21:38 | 29.51505 | -93.87924 | 19600 ft | 365 kts | 275° |
| 2026-05-04 21:39 | 29.51603 | -93.90801 | 19387 ft | 354 kts | 275° |
| 2026-05-04 21:39 | 29.51697 | -93.93575 | 19222 ft | 342 kts | 275° |
| 2026-05-04 21:39 | 29.51789 | -93.96267 | 18952 ft | 334 kts | 275° |
| 2026-05-04 21:39 | 29.51881 | -93.98929 | 18488 ft | 334 kts | 275° |
| 2026-05-04 21:40 | 29.51974 | -94.01594 | 17922 ft | 335 kts | 274° |
| 2026-05-04 21:40 | 29.52067 | -94.04256 | 17432 ft | 333 kts | 274° |
| 2026-05-04 21:40 | 29.52158 | -94.06909 | 16992 ft | 330 kts | 274° |
| 2026-05-04 21:40 | 29.52247 | -94.09535 | 16548 ft | 328 kts | 274° |
| 2026-05-04 21:41 | 29.52335 | -94.12146 | 16089 ft | 326 kts | 274° |
| 2026-05-04 21:41 | 29.52423 | -94.14743 | 15641 ft | 325 kts | 274° |
| 2026-05-04 21:41 | 29.52509 | -94.17328 | 15206 ft | 323 kts | 274° |
| 2026-05-04 21:41 | 29.52595 | -94.19900 | 14778 ft | 322 kts | 274° |
| 2026-05-04 21:42 | 29.52680 | -94.22452 | 14528 ft | 315 kts | 274° |
| 2026-05-04 21:42 | 29.52760 | -94.24929 | 14358 ft | 306 kts | 274° |
| 2026-05-04 21:42 | 29.52838 | -94.27332 | 14224 ft | 296 kts | 274° |
| 2026-05-04 21:42 | 29.53151 | -94.29617 | 14053 ft | 286 kts | 289° |
| 2026-05-04 21:43 | 29.54038 | -94.31653 | 13716 ft | 285 kts | 301° |
| 2026-05-04 21:43 | 29.55129 | -94.33547 | 13370 ft | 284 kts | 303° |
| 2026-05-04 21:43 | 29.56221 | -94.35386 | 13038 ft | 282 kts | 303° |
| 2026-05-04 21:43 | 29.57324 | -94.37245 | 12718 ft | 281 kts | 303° |
| 2026-05-04 21:44 | 29.58418 | -94.39097 | 12388 ft | 280 kts | 303° |
| 2026-05-04 21:44 | 29.59507 | -94.40953 | 12069 ft | 279 kts | 302° |
| 2026-05-04 21:44 | 29.60583 | -94.42796 | 11758 ft | 277 kts | 302° |
| 2026-05-04 21:44 | 29.61656 | -94.44639 | 11428 ft | 277 kts | 302° |
| 2026-05-04 21:45 | 29.62723 | -94.46473 | 11118 ft | 275 kts | 302° |
| 2026-05-04 21:45 | 29.63785 | -94.48303 | 10809 ft | 275 kts | 302° |
| 2026-05-04 21:45 | 29.64847 | -94.50133 | 10479 ft | 275 kts | 302° |
| 2026-05-04 21:45 | 29.65903 | -94.51955 | 10267 ft | 271 kts | 302° |
| 2026-05-04 21:46 | 29.66938 | -94.53736 | 10101 ft | 265 kts | 303° |
| 2026-05-04 21:46 | 29.68188 | -94.55259 | 9950 ft | 263 kts | 322° |
| 2026-05-04 21:46 | 29.69728 | -94.56404 | 9818 ft | 264 kts | 325° |
| 2026-05-04 21:46 | 29.71296 | -94.57525 | 9663 ft | 266 kts | 325° |
| 2026-05-04 21:47 | 29.72882 | -94.58655 | 9493 ft | 270 kts | 325° |
| 2026-05-04 21:47 | 29.74483 | -94.59800 | 9330 ft | 272 kts | 324° |
| 2026-05-04 21:47 | 29.76088 | -94.60952 | 9172 ft | 272 kts | 324° |
| 2026-05-04 21:47 | 29.77694 | -94.62109 | 9004 ft | 273 kts | 324° |
| 2026-05-04 21:48 | 29.79306 | -94.63273 | 8846 ft | 273 kts | 324° |
| 2026-05-04 21:48 | 29.80919 | -94.64440 | 8672 ft | 274 kts | 324° |
| 2026-05-04 21:48 | 29.82534 | -94.65610 | 8513 ft | 273 kts | 324° |
| 2026-05-04 21:48 | 29.84134 | -94.66769 | 8357 ft | 271 kts | 324° |
| 2026-05-04 21:49 | 29.85725 | -94.67924 | 8197 ft | 269 kts | 324° |
| 2026-05-04 21:49 | 29.87298 | -94.69066 | 8035 ft | 266 kts | 324° |
| 2026-05-04 21:49 | 29.88863 | -94.70203 | 7892 ft | 265 kts | 324° |
| 2026-05-04 21:49 | 29.90421 | -94.71336 | 7725 ft | 264 kts | 324° |
| 2026-05-04 21:50 | 29.91978 | -94.72468 | 7580 ft | 265 kts | 324° |
| 2026-05-04 21:50 | 29.93542 | -94.73606 | 7430 ft | 266 kts | 324° |
| 2026-05-04 21:50 | 29.95097 | -94.74737 | 7298 ft | 261 kts | 324° |
| 2026-05-04 21:50 | 29.96621 | -94.75845 | 7144 ft | 256 kts | 324° |
| 2026-05-04 21:51 | 29.97830 | -94.77229 | 7019 ft | 238 kts | 291° |
| 2026-05-04 21:51 | 29.98224 | -94.79004 | 7021 ft | 225 kts | 276° |
| 2026-05-04 21:51 | 29.98380 | -94.80805 | 6932 ft | 228 kts | 273° |
| 2026-05-04 21:51 | 29.98502 | -94.82646 | 6748 ft | 232 kts | 273° |
| 2026-05-04 21:52 | 29.98622 | -94.84494 | 6532 ft | 230 kts | 273° |
| 2026-05-04 21:52 | 29.98746 | -94.86319 | 6318 ft | 227 kts | 272° |
| 2026-05-04 21:52 | 29.98871 | -94.88125 | 6121 ft | 225 kts | 272° |
| 2026-05-04 21:52 | 29.98992 | -94.89855 | 5901 ft | 224 kts | 272° |
| 2026-05-04 21:53 | 29.99120 | -94.91644 | 5687 ft | 223 kts | 271° |
| 2026-05-04 21:53 | 29.99248 | -94.93423 | 5479 ft | 222 kts | 271° |
| 2026-05-04 21:53 | 29.99377 | -94.95193 | 5263 ft | 221 kts | 271° |
| 2026-05-04 21:53 | 29.99505 | -94.96966 | 5074 ft | 223 kts | 271° |
| 2026-05-04 21:54 | 29.99635 | -94.98744 | 4848 ft | 222 kts | 271° |
| 2026-05-04 21:54 | 29.99766 | -95.00519 | 4634 ft | 222 kts | 270° |
| 2026-05-04 21:54 | 29.99895 | -95.02293 | 4432 ft | 221 kts | 271° |
| 2026-05-04 21:54 | 30.00026 | -95.04061 | 4218 ft | 221 kts | 270° |
| 2026-05-04 21:55 | 30.00155 | -95.05830 | 4012 ft | 221 kts | 271° |
| 2026-05-04 21:55 | 30.00284 | -95.07595 | 3791 ft | 221 kts | 270° |
| 2026-05-04 21:55 | 30.00413 | -95.09357 | 3580 ft | 219 kts | 270° |
| 2026-05-04 21:55 | 30.00551 | -95.11084 | 3381 ft | 219 kts | 272° |
| 2026-05-04 21:56 | 30.00704 | -95.12849 | 3168 ft | 218 kts | 268° |
| 2026-05-04 21:56 | 30.00746 | -95.14586 | 3068 ft | 220 kts | 266° |
| 2026-05-04 21:56 | 30.00744 | -95.16369 | 2926 ft | 226 kts | 266° |
| 2026-05-04 21:56 | 30.00737 | -95.18205 | 2662 ft | 229 kts | 265° |
| 2026-05-04 21:57 | 30.00732 | -95.20056 | 2332 ft | 232 kts | 265° |
| 2026-05-04 21:57 | 30.00731 | -95.21909 | 2046 ft | 227 kts | 265° |
| 2026-05-04 21:57 | 30.00730 | -95.23691 | 1732 ft | 218 kts | 265° |
| 2026-05-04 21:57 | 30.00726 | -95.25402 | 1459 ft | 209 kts | 265° |
| 2026-05-04 21:58 | 30.00722 | -95.27054 | 1128 ft | 200 kts | 266° |
| 2026-05-04 21:58 | 30.00730 | -95.28615 | 798 ft | 188 kts | 266° |
| 2026-05-04 21:58 | 30.00723 | -95.30003 | 599 ft | 170 kts | 264° |
| 2026-05-04 21:58 | 30.00717 | -95.31283 | 429 ft | 154 kts | 268° |
| 2026-05-04 21:59 | 30.00717 | -95.32495 | 217 ft | 149 kts | 268° |
| 2026-05-04 21:59 | 30.00720 | -95.33667 | 109 ft | 137 kts | 267° |
| 2026-05-04 21:59 | 30.00716 | -95.34637 | 106 ft | 107 kts | 269° |
| 2026-05-04 21:59 | 30.00713 | -95.35233 | 106 ft | 42 kts | 265° |
| 2026-05-04 22:00 | 30.00648 | -95.35459 | 106 ft | 16 kts | 240° |
| 2026-05-04 22:00 | 30.00610 | -95.35504 | 106 ft | 2 kts | 211° |
| 2026-05-04 22:00 | 30.00584 | -95.35534 | 104 ft | 10 kts | 234° |
| 2026-05-04 22:00 | 30.00546 | -95.35623 | 106 ft | 14 kts | 229° |
| 2026-05-04 22:01 | 30.00453 | -95.35656 | 106 ft | 14 kts | 182° |
| 2026-05-04 22:01 | 30.00356 | -95.35654 | 106 ft | 14 kts | 179° |
| 2026-05-04 22:01 | 30.00263 | -95.35651 | 106 ft | 13 kts | 172° |
| 2026-05-04 22:01 | 30.00186 | -95.35604 | 106 ft | 13 kts | 136° |
| 2026-05-04 22:02 | 30.00119 | -95.35539 | 106 ft | 12 kts | 149° |
| 2026-05-04 22:02 | 30.00041 | -95.35501 | 106 ft | 12 kts | 163° |
| 2026-05-04 22:02 | 29.99956 | -95.35486 | 106 ft | 14 kts | 177° |
| 2026-05-04 22:02 | 29.99847 | -95.35485 | 106 ft | 17 kts | 180° |
| 2026-05-04 22:03 | 29.99730 | -95.35486 | 106 ft | 17 kts | 180° |
| 2026-05-04 22:03 | 29.99618 | -95.35487 | 106 ft | 16 kts | 180° |
| 2026-05-04 22:03 | 29.99513 | -95.35485 | 106 ft | 14 kts | 179° |
| 2026-05-04 22:03 | 29.99423 | -95.35485 | 106 ft | 13 kts | 180° |
| 2026-05-04 22:04 | 29.99337 | -95.35486 | 106 ft | 12 kts | 180° |
| 2026-05-04 22:04 | 29.99242 | -95.35487 | 106 ft | 16 kts | 180° |
| 2026-05-04 22:04 | 29.99119 | -95.35487 | 106 ft | 20 kts | 180° |
| 2026-05-04 22:04 | 29.98968 | -95.35484 | 106 ft | 20 kts | 179° |
| 2026-05-04 22:05 | 29.98840 | -95.35478 | 106 ft | 17 kts | 165° |
| 2026-05-04 22:05 | 29.98734 | -95.35418 | 106 ft | 17 kts | 152° |
| 2026-05-04 22:05 | 29.98634 | -95.35357 | 104 ft | 16 kts | 152° |
| 2026-05-04 22:05 | 29.98537 | -95.35297 | 106 ft | 16 kts | 152° |
| 2026-05-04 22:06 | 29.98446 | -95.35241 | 105 ft | 8 kts | 152° |
| 2026-05-04 22:06 | 29.98429 | -95.35216 | 106 ft | 1 kts | 85° |
| 2026-05-04 22:06 | 29.98436 | -95.35206 | 106 ft | 2 kts | 50° |
| 2026-05-04 22:06 | 29.98453 | -95.35197 | 106 ft | 4 kts | 19° |
| 2026-05-04 22:07 | 29.98472 | -95.35167 | 105 ft | 6 kts | 80° |
| 2026-05-04 22:07 | 29.98492 | -95.35131 | 106 ft | 5 kts | 13° |
| 2026-05-04 22:07 | 29.98517 | -95.35130 | 106 ft | 2 kts | 0° |
| 2026-05-04 22:07 | 29.98528 | -95.35130 | 104 ft | 1 kts | 0° |